Meteo Giornale » Osservazioni meteo Italia » Capo Bellavista

ore: 23:55 - Osservazioni Meteo Capo Bellavista
Lat. 39° 56' N Lon. 9° 43' E Alt. 138 metri s.l.m.

sereno Europe/Rome

17 °C

Sereno

Temp. 24 Ore

16 °C

28 °C

Ovest

16.7 Km/h

Dew point 12 °C

Umidità 72 %

Visibilità  10 Km

Il sole sorge alle ore 07:07

Il sole tramonta alle ore 19:20

Data e Ora Cielo e Fenomeni T °C DP °C Um. % Pres. hPa Vis. km Vento km/h
Ieri h: 23:55 sereno Sereno 17 12 72 1018 10 O 16.7
Ieri h: 22:55 sereno Sereno 18 13 72 1018 10 O/SO 14.8
Ieri h: 21:55 sereno Sereno 19 14 72 1018 10 O/SO 13
Ieri h: 20:55 sereno Sereno 20 15 72 1018 10 SO 16.7
Ieri h: 19:55 poco_nuvoloso Poco Nuvoloso 21 14 64 1018 10 S 20.3
Ieri h: 18:55 poco_nuvoloso Poco Nuvoloso 22 12 53 1018 10 S 20.3
Ieri h: 17:55 poco_nuvoloso Poco Nuvoloso 25 11 41 1018 10 S/SE 9.3
Ieri h: 16:55 poco_nuvoloso Poco Nuvoloso 26 11 39 1018 10 S 7.4
Ieri h: 15:55 poco_nuvoloso Poco Nuvoloso 24 14 53 1019 10 S/SE 7.4
Ieri h: 14:55 poco_nuvoloso Poco Nuvoloso 25 14 50 1019 10 SE 9.3
Ieri h: 13:55 poco_nuvoloso Poco Nuvoloso 27 14 44 1020 10 E/SE 18.5
Ieri h: 12:55 poco_nuvoloso Poco Nuvoloso 26 13 44 1020 10 E/SE 22.2
Ieri h: 11:55 nuvoloso Nuvoloso 28 13 39 1019 10 S/SE 9.3
Ieri h: 10:55 nuvoloso Nuvoloso 24 12 47 1019 10 SE 7.4
Ieri h: 09:55 nuvoloso Nuvoloso 20 8 45 1019 10 N 5.5
Ieri h: 08:55 nuvoloso Nuvoloso 17 5 45 1018 10 O/NO 14.8
Ieri h: 07:55 poco_nuvoloso Poco Nuvoloso 16 5 47 1017 10 O/NO 24
Ieri h: 06:55 poco_nuvoloso Poco Nuvoloso 16 4 44 1017 10 O/NO 25.9
Ieri h: 05:55 poco_nuvoloso Poco Nuvoloso 16 3 41 1017 10 O/NO 25.9
Ieri h: 04:55 poco_nuvoloso Poco Nuvoloso 16 1 36 1017 10 O/NO 25.9
Ieri h: 03:55 sereno Sereno 16 7 55 1017 10 O/NO 25.9
Ieri h: 02:55 sereno Sereno 17 8 55 1018 10 O/NO 24
Ieri h: 01:55 poco_nuvoloso Poco Nuvoloso 17 9 59 1018 10 O/NO 24